createdAt,value
2019-02-17T00:00:49.961Z,10.20
2019-02-17T00:03:22.507Z,10.20
2019-02-17T00:05:55.085Z,10.20
2019-02-17T00:08:26.542Z,10.30
2019-02-17T00:10:59.465Z,10.20
2019-02-17T00:13:30.908Z,10.20
2019-02-17T00:16:02.602Z,10.20
2019-02-17T00:18:34.719Z,10.20
2019-02-17T00:21:06.435Z,10.20
2019-02-17T00:23:38.042Z,10.20
2019-02-17T00:26:09.596Z,10.20
2019-02-17T00:28:41.066Z,10.20
2019-02-17T00:31:12.687Z,10.30
2019-02-17T00:33:44.171Z,10.30
2019-02-17T00:36:15.720Z,10.30
2019-02-17T00:38:49.095Z,10.30
2019-02-17T00:41:20.702Z,10.30
2019-02-17T00:43:52.264Z,10.30
2019-02-17T00:46:25.073Z,10.40
2019-02-17T00:48:57.538Z,10.30
2019-02-17T00:51:29.230Z,10.50
2019-02-17T00:54:00.738Z,10.50
2019-02-17T00:56:32.239Z,10.50
2019-02-17T00:59:10.256Z,10.50
2019-02-17T01:01:40.152Z,10.50
2019-02-17T01:04:11.906Z,10.50
2019-02-17T01:06:43.515Z,10.60
2019-02-17T01:09:15.143Z,10.60
2019-02-17T01:11:46.978Z,10.60
2019-02-17T01:14:20.193Z,10.60
2019-02-17T01:16:51.712Z,10.70
2019-02-17T01:19:25.679Z,10.60
2019-02-17T01:22:00.318Z,10.60
2019-02-17T01:24:31.817Z,10.70
2019-02-17T01:27:03.333Z,10.70
2019-02-17T01:29:36.081Z,10.80
2019-02-17T01:32:07.723Z,10.80
2019-02-17T01:34:39.277Z,10.90
2019-02-17T01:37:13.679Z,10.90
2019-02-17T01:39:55.743Z,11.00
2019-02-17T01:42:29.077Z,11.00
2019-02-17T01:45:00.631Z,11.00
2019-02-17T01:47:32.134Z,11.10
2019-02-17T01:50:03.696Z,11.00
2019-02-17T01:52:36.270Z,11.00
2019-02-17T01:55:08.045Z,11.10
2019-02-17T01:57:51.028Z,11.10
2019-02-17T02:00:24.932Z,11.00
2019-02-17T02:02:56.441Z,11.00
2019-02-17T02:05:28.046Z,11.00
2019-02-17T02:07:59.709Z,10.90
2019-02-17T02:10:31.234Z,10.80
2019-02-17T02:13:02.965Z,10.70
2019-02-17T02:15:34.446Z,10.60
2019-02-17T02:18:06.145Z,10.50
2019-02-17T02:20:39.668Z,10.40
2019-02-17T02:23:11.547Z,10.30
2019-02-17T02:25:43.086Z,10.20
2019-02-17T02:28:14.683Z,10.00
2019-02-17T02:30:46.187Z,9.90
2019-02-17T02:33:17.871Z,9.90
2019-02-17T02:35:49.454Z,9.80
2019-02-17T02:38:20.963Z,9.70
2019-02-17T02:40:52.490Z,9.60
2019-02-17T02:43:24.039Z,9.60
2019-02-17T02:45:55.515Z,9.50
2019-02-17T02:48:27.147Z,9.50
2019-02-17T02:50:59.041Z,9.50
2019-02-17T02:53:30.610Z,9.60
2019-02-17T02:56:02.242Z,9.50
2019-02-17T02:58:33.734Z,9.50
2019-02-17T03:01:06.841Z,9.60
2019-02-17T03:03:38.320Z,9.60
2019-02-17T03:06:40.856Z,9.70
2019-02-17T03:09:12.432Z,9.70
2019-02-17T03:11:43.904Z,9.60
2019-02-17T03:14:15.391Z,9.60
2019-02-17T03:16:46.832Z,9.60
2019-02-17T03:19:18.311Z,9.60
2019-02-17T03:21:49.787Z,9.70
2019-02-17T03:24:21.233Z,9.70
2019-02-17T03:26:55.949Z,9.70
2019-02-17T03:29:30.357Z,9.70
2019-02-17T03:32:01.900Z,9.60
2019-02-17T03:34:33.486Z,9.60
2019-02-17T03:37:05.177Z,9.70
2019-02-17T03:39:39.419Z,9.60
2019-02-17T03:42:11.014Z,9.60
2019-02-17T03:44:42.561Z,9.60
2019-02-17T03:47:17.125Z,9.50
2019-02-17T03:49:48.609Z,9.60
2019-02-17T03:52:32.320Z,9.50
2019-02-17T03:55:03.971Z,9.50
2019-02-17T03:57:35.541Z,9.40
2019-02-17T04:00:16.475Z,9.40
2019-02-17T04:02:40.694Z,9.40
2019-02-17T04:05:14.005Z,9.40
2019-02-17T04:07:45.587Z,9.40
2019-02-17T04:10:19.864Z,9.40
2019-02-17T04:12:51.341Z,9.40
2019-02-17T04:15:22.824Z,9.40
2019-02-17T04:17:56.032Z,9.40
2019-02-17T04:20:27.609Z,9.30
2019-02-17T04:22:59.172Z,9.30
2019-02-17T04:25:39.452Z,9.20
2019-02-17T04:28:10.914Z,9.20
2019-02-17T04:30:42.394Z,9.10
2019-02-17T04:33:15.162Z,9.20
2019-02-17T04:35:46.652Z,9.10
2019-02-17T04:38:18.335Z,9.10
2019-02-17T04:40:50.120Z,9.10
2019-02-17T04:43:21.683Z,9.00
2019-02-17T04:45:53.480Z,9.10
2019-02-17T04:48:25.136Z,9.00
2019-02-17T04:50:56.659Z,9.10
2019-02-17T04:53:28.098Z,9.00
2019-02-17T04:56:01.648Z,8.90
2019-02-17T04:58:33.130Z,8.90
2019-02-17T05:01:04.601Z,8.80
2019-02-17T05:03:36.512Z,8.80
2019-02-17T05:06:08.061Z,8.80
2019-02-17T05:08:40.591Z,8.70
2019-02-17T05:11:12.072Z,8.70
2019-02-17T05:13:47.085Z,8.70
2019-02-17T05:16:19.652Z,8.60
2019-02-17T05:18:51.102Z,8.60
2019-02-17T05:21:22.658Z,8.60
2019-02-17T05:23:54.178Z,8.50
2019-02-17T05:26:25.660Z,8.60
2019-02-17T05:28:57.263Z,8.50
2019-02-17T05:31:28.878Z,8.40
2019-02-17T05:34:00.321Z,8.40
2019-02-17T05:36:31.803Z,8.30
2019-02-17T05:39:04.622Z,8.20
2019-02-17T05:41:36.467Z,8.10
2019-02-17T05:44:07.954Z,8.00
2019-02-17T05:46:39.442Z,8.00
2019-02-17T05:49:10.904Z,7.80
2019-02-17T05:51:42.387Z,7.70
2019-02-17T05:54:13.854Z,7.60
2019-02-17T05:56:45.345Z,7.50
2019-02-17T05:59:16.872Z,7.50
2019-02-17T06:01:48.545Z,7.40
2019-02-17T06:04:20.111Z,7.40
2019-02-17T06:06:51.567Z,7.40
2019-02-17T06:09:23.068Z,7.40
2019-02-17T06:11:54.621Z,7.30
2019-02-17T06:14:26.891Z,7.30
2019-02-17T06:16:58.433Z,7.20
2019-02-17T06:19:29.972Z,7.10
2019-02-17T06:22:01.414Z,6.90
2019-02-17T06:24:33.834Z,6.80
2019-02-17T06:27:05.306Z,6.70
2019-02-17T06:29:36.803Z,6.60
2019-02-17T06:32:08.309Z,6.50
2019-02-17T06:34:39.767Z,6.40
2019-02-17T06:37:11.471Z,6.40
2019-02-17T06:39:42.999Z,6.40
2019-02-17T06:42:14.578Z,6.40
2019-02-17T06:44:46.086Z,6.40
2019-02-17T06:47:30.789Z,6.40
2019-02-17T06:50:02.395Z,6.40
2019-02-17T06:52:33.980Z,6.40
2019-02-17T06:55:23.299Z,6.30
2019-02-17T06:57:54.840Z,6.30
2019-02-17T07:00:31.665Z,6.40
2019-02-17T07:03:03.170Z,6.50
2019-02-17T07:05:53.768Z,6.50
2019-02-17T07:08:25.328Z,6.60
2019-02-17T07:10:56.779Z,6.70
2019-02-17T07:13:28.264Z,6.70
2019-02-17T07:16:13.640Z,6.80
2019-02-17T07:18:45.447Z,6.80
2019-02-17T07:21:29.674Z,6.80
2019-02-17T07:24:01.202Z,6.80
2019-02-17T07:26:33.032Z,6.80
2019-02-17T07:29:05.342Z,6.80
2019-02-17T07:31:36.936Z,6.80
2019-02-17T07:34:08.447Z,6.70
2019-02-17T07:36:39.976Z,6.80
2019-02-17T07:39:11.567Z,6.70
2019-02-17T07:41:43.045Z,6.70
2019-02-17T07:44:14.849Z,6.70
2019-02-17T07:46:46.370Z,6.70
2019-02-17T07:49:17.923Z,6.60
2019-02-17T07:51:49.609Z,6.60
2019-02-17T07:54:24.357Z,6.60
2019-02-17T07:56:55.916Z,6.60
2019-02-17T07:59:27.413Z,6.60
2019-02-17T08:02:00.630Z,6.70
2019-02-17T08:04:32.412Z,6.70
2019-02-17T08:07:05.080Z,6.70
2019-02-17T08:09:36.556Z,6.80
2019-02-17T08:12:11.084Z,6.70
2019-02-17T08:14:42.695Z,6.70
2019-02-17T08:17:14.281Z,6.80
2019-02-17T08:19:46.171Z,6.90
2019-02-17T08:22:17.747Z,6.90
2019-02-17T08:24:49.604Z,6.90
2019-02-17T08:27:21.162Z,6.90
2019-02-17T08:29:52.753Z,6.90
2019-02-17T08:32:24.409Z,6.90
2019-02-17T08:34:56.137Z,6.90
2019-02-17T08:37:27.719Z,6.90
2019-02-17T08:39:59.391Z,6.90
2019-02-17T08:42:30.922Z,7.00
2019-02-17T08:45:02.517Z,7.10
2019-02-17T08:47:34.378Z,7.10
2019-02-17T08:50:08.706Z,7.10
2019-02-17T08:52:40.487Z,7.20
2019-02-17T08:55:12.126Z,7.30
2019-02-17T08:57:43.689Z,7.40
2019-02-17T09:00:15.290Z,7.50
2019-02-17T09:02:46.855Z,7.60
2019-02-17T09:05:18.394Z,7.70
2019-02-17T09:07:50.013Z,7.80
2019-02-17T09:10:21.747Z,8.00
2019-02-17T09:12:53.279Z,8.00
2019-02-17T09:15:24.804Z,8.20
2019-02-17T09:17:59.471Z,8.20
2019-02-17T09:20:31.117Z,8.20
2019-02-17T09:23:02.668Z,8.30
2019-02-17T09:25:34.316Z,8.50
2019-02-17T09:28:05.962Z,8.60
2019-02-17T09:30:37.585Z,8.70
2019-02-17T09:33:09.097Z,8.70
2019-02-17T09:35:40.836Z,8.70
2019-02-17T09:38:12.366Z,8.70
2019-02-17T09:40:43.895Z,8.80
2019-02-17T09:43:15.418Z,8.90
2019-02-17T09:45:46.939Z,8.90
2019-02-17T09:48:20.137Z,9.00
2019-02-17T09:50:58.163Z,9.10
2019-02-17T09:53:31.742Z,9.30
2019-02-17T09:56:03.699Z,9.30
2019-02-17T09:58:35.589Z,9.40
2019-02-17T10:01:07.268Z,9.50
2019-02-17T10:03:39.333Z,9.50
2019-02-17T10:06:11.273Z,9.60
2019-02-17T10:08:43.007Z,9.70
2019-02-17T10:11:14.619Z,9.80
2019-02-17T10:13:46.526Z,9.90
2019-02-17T10:16:18.108Z,10.00
2019-02-17T10:18:52.095Z,10.00
2019-02-17T10:21:25.401Z,10.10
2019-02-17T10:23:58.378Z,10.20
2019-02-17T10:26:29.927Z,10.20
2019-02-17T10:29:01.561Z,10.30
2019-02-17T10:31:33.295Z,10.40
2019-02-17T10:34:04.766Z,10.50
2019-02-17T10:36:36.347Z,10.60
2019-02-17T10:39:08.917Z,10.70
2019-02-17T10:41:40.783Z,10.70
2019-02-17T10:44:12.574Z,10.80
2019-02-17T10:46:44.459Z,10.80
2019-02-17T10:49:16.402Z,10.90
2019-02-17T10:51:48.138Z,10.90
2019-02-17T10:54:19.956Z,10.90
2019-02-17T10:56:51.969Z,11.00
2019-02-17T10:59:23.502Z,11.00
2019-02-17T11:01:55.118Z,11.10
2019-02-17T11:04:26.939Z,11.10
2019-02-17T11:06:59.986Z,11.20
2019-02-17T11:09:31.671Z,11.30
2019-02-17T11:12:03.235Z,11.30
2019-02-17T11:14:34.938Z,11.40
2019-02-17T11:17:06.780Z,11.40
2019-02-17T11:19:38.384Z,11.50
2019-02-17T11:22:09.995Z,11.50
2019-02-17T11:24:42.007Z,11.60
2019-02-17T11:27:13.586Z,11.60
2019-02-17T11:29:45.680Z,11.60
2019-02-17T11:32:18.612Z,11.70
2019-02-17T11:34:54.194Z,11.70
2019-02-17T11:37:27.452Z,11.80
2019-02-17T11:40:00.348Z,11.80
2019-02-17T11:42:34.059Z,11.80
2019-02-17T11:45:07.853Z,11.90
2019-02-17T11:47:39.531Z,11.90
2019-02-17T11:50:11.123Z,12.00
2019-02-17T11:52:42.643Z,12.00
2019-02-17T11:55:14.468Z,12.10
2019-02-17T11:57:46.078Z,12.10
2019-02-17T12:00:20.142Z,12.10
2019-02-17T12:02:51.872Z,12.10
2019-02-17T12:05:23.408Z,12.10
2019-02-17T12:07:55.076Z,12.20
2019-02-17T12:10:26.885Z,12.20
2019-02-17T12:12:58.588Z,12.20
2019-02-17T12:15:30.313Z,12.20
2019-02-17T12:18:02.111Z,12.20
2019-02-17T12:20:53.584Z,12.30
2019-02-17T12:23:47.482Z,12.30
2019-02-17T12:26:32.425Z,12.30
2019-02-17T12:29:08.662Z,12.40
2019-02-17T12:31:40.655Z,12.50
2019-02-17T12:34:16.254Z,12.50
2019-02-17T12:36:49.598Z,12.50
2019-02-17T12:39:21.335Z,12.50
2019-02-17T12:41:52.903Z,12.60
2019-02-17T12:44:24.599Z,12.60
2019-02-17T12:46:56.146Z,12.60
2019-02-17T12:49:29.090Z,12.70
2019-02-17T12:52:00.751Z,12.80
2019-02-17T12:54:32.393Z,12.80
2019-02-17T12:57:04.352Z,12.90
2019-02-17T12:59:37.274Z,12.90
2019-02-17T13:02:09.142Z,12.90
2019-02-17T13:04:40.868Z,13.00
2019-02-17T13:07:12.823Z,13.00
2019-02-17T13:09:44.376Z,13.10
2019-02-17T13:12:16.426Z,13.10
2019-02-17T13:14:48.199Z,13.10
2019-02-17T13:17:19.735Z,13.20
2019-02-17T13:19:53.730Z,13.20
2019-02-17T13:22:25.412Z,13.20
2019-02-17T13:24:57.070Z,13.30
2019-02-17T13:27:28.644Z,13.30
2019-02-17T13:30:02.688Z,13.30
2019-02-17T13:32:35.878Z,13.40
2019-02-17T13:35:07.706Z,13.50
2019-02-17T13:37:39.311Z,13.50
2019-02-17T13:40:14.090Z,13.60
2019-02-17T13:42:52.522Z,13.70
2019-02-17T13:45:24.133Z,13.70
2019-02-17T13:47:55.639Z,13.70
2019-02-17T13:50:27.150Z,13.80
2019-02-17T13:52:58.719Z,13.90
2019-02-17T13:55:30.291Z,13.90
2019-02-17T13:58:01.922Z,14.00
2019-02-17T14:00:33.408Z,14.00
2019-02-17T14:03:06.282Z,14.00
2019-02-17T14:05:37.849Z,14.00
2019-02-17T14:08:28.378Z,14.00
2019-02-17T14:10:59.912Z,14.00
2019-02-17T14:13:31.478Z,13.90
2019-02-17T14:16:03.155Z,13.90
2019-02-17T14:18:37.446Z,13.90
2019-02-17T14:21:09.115Z,13.90
2019-02-17T14:23:40.920Z,13.90
2019-02-17T14:26:12.438Z,13.90
2019-02-17T14:28:46.457Z,13.90
2019-02-17T14:31:18.113Z,14.00
2019-02-17T14:33:58.370Z,14.00
2019-02-17T14:36:23.519Z,14.10
2019-02-17T14:38:55.231Z,14.20
2019-02-17T14:41:26.788Z,14.20
2019-02-17T14:43:58.579Z,14.20
2019-02-17T14:46:30.125Z,14.30
2019-02-17T14:49:02.507Z,14.40
2019-02-17T14:51:34.309Z,14.40
2019-02-17T14:54:06.682Z,14.40
2019-02-17T14:56:38.317Z,14.50
2019-02-17T14:59:09.965Z,14.50
2019-02-17T15:01:41.427Z,14.40
2019-02-17T15:04:12.903Z,14.30
2019-02-17T15:06:45.512Z,14.30
2019-02-17T15:09:17.035Z,14.20
2019-02-17T15:11:48.630Z,14.20
2019-02-17T15:14:20.118Z,14.10
2019-02-17T15:16:51.672Z,14.00
2019-02-17T15:19:23.269Z,13.90
2019-02-17T15:21:55.043Z,13.80
2019-02-17T15:24:26.658Z,13.70
2019-02-17T15:26:58.775Z,13.70
2019-02-17T15:29:31.819Z,13.60
2019-02-17T15:32:04.035Z,13.40
2019-02-17T15:34:35.754Z,13.40
2019-02-17T15:37:07.451Z,13.30
2019-02-17T15:39:38.954Z,13.20
2019-02-17T15:42:10.649Z,13.10
2019-02-17T15:44:42.125Z,13.00
2019-02-17T15:47:13.619Z,12.90
2019-02-17T15:49:45.155Z,12.90
2019-02-17T15:52:17.677Z,12.80
2019-02-17T15:54:49.283Z,12.80
2019-02-17T15:57:20.925Z,12.60
2019-02-17T15:59:52.494Z,12.60
2019-02-17T16:02:24.129Z,12.40
2019-02-17T16:04:55.749Z,12.40
2019-02-17T16:07:27.406Z,12.30
2019-02-17T16:09:58.925Z,12.20
2019-02-17T16:12:30.658Z,12.20
2019-02-17T16:15:02.291Z,12.10
2019-02-17T16:17:35.636Z,12.00
2019-02-17T16:20:10.003Z,11.90
2019-02-17T16:22:43.320Z,11.80
2019-02-17T16:25:14.895Z,11.70
2019-02-17T16:27:46.575Z,11.60
2019-02-17T16:30:18.322Z,11.60
2019-02-17T16:32:49.884Z,11.50
2019-02-17T16:35:21.372Z,11.40
2019-02-17T16:37:53.126Z,11.40
2019-02-17T16:40:27.115Z,11.30
2019-02-17T16:42:58.612Z,11.20
2019-02-17T16:45:30.343Z,11.10
2019-02-17T16:48:02.096Z,11.00
2019-02-17T16:50:39.385Z,10.90
2019-02-17T16:53:30.040Z,10.90
2019-02-17T16:56:01.865Z,10.80
2019-02-17T16:58:33.381Z,10.70
2019-02-17T17:01:06.321Z,10.70
2019-02-17T17:03:37.905Z,10.70
2019-02-17T17:06:09.558Z,10.60
2019-02-17T17:08:41.234Z,10.50
2019-02-17T17:11:13.030Z,10.40
2019-02-17T17:13:44.674Z,10.30
2019-02-17T17:16:16.389Z,10.30
2019-02-17T17:18:48.457Z,10.20
2019-02-17T17:21:20.210Z,10.10
2019-02-17T17:23:51.906Z,10.10
2019-02-17T17:26:23.540Z,10.00
2019-02-17T17:28:55.081Z,10.00
2019-02-17T17:31:26.615Z,9.90
2019-02-17T17:33:58.460Z,9.90
2019-02-17T17:36:31.096Z,9.90
2019-02-17T17:39:03.608Z,9.80
2019-02-17T17:41:36.710Z,9.80
2019-02-17T17:44:08.352Z,9.70
2019-02-17T17:46:39.987Z,9.70
2019-02-17T17:49:19.026Z,9.70
2019-02-17T17:51:44.764Z,9.70
2019-02-17T17:54:16.334Z,9.60
2019-02-17T17:56:47.863Z,9.60
2019-02-17T17:59:19.553Z,9.70
2019-02-17T18:01:52.405Z,9.60
2019-02-17T18:04:25.558Z,9.60
2019-02-17T18:06:57.459Z,9.50
2019-02-17T18:09:29.378Z,9.50
2019-02-17T18:12:01.144Z,9.50
2019-02-17T18:14:32.909Z,9.50
2019-02-17T18:17:04.555Z,9.40
2019-02-17T18:19:36.294Z,9.40
2019-02-17T18:22:07.856Z,9.30
2019-02-17T18:24:39.563Z,9.20
2019-02-17T18:27:11.065Z,9.20
2019-02-17T18:29:42.716Z,9.20
2019-02-17T18:32:14.392Z,9.10
2019-02-17T18:34:46.128Z,9.00
2019-02-17T18:37:17.813Z,9.00
2019-02-17T18:39:49.544Z,8.90
2019-02-17T18:42:21.068Z,8.80
2019-02-17T18:44:53.820Z,8.80
2019-02-17T18:47:25.323Z,8.70
2019-02-17T18:49:57.075Z,8.70
2019-02-17T18:52:30.525Z,8.60
2019-02-17T18:55:02.096Z,8.60
2019-02-17T18:57:34.496Z,8.50
2019-02-17T19:00:07.538Z,8.50
2019-02-17T19:02:39.720Z,8.40
2019-02-17T19:05:11.718Z,8.40
2019-02-17T19:07:43.267Z,8.30
2019-02-17T19:10:15.235Z,8.30
2019-02-17T19:12:46.878Z,8.30
2019-02-17T19:15:18.469Z,8.30
2019-02-17T19:17:50.029Z,8.20
2019-02-17T19:20:22.349Z,8.20
2019-02-17T19:22:54.287Z,8.20
2019-02-17T19:25:25.813Z,8.20
2019-02-17T19:27:58.521Z,8.20
2019-02-17T19:30:30.150Z,8.20
2019-02-17T19:33:01.686Z,8.10
2019-02-17T19:35:41.616Z,8.10
2019-02-17T19:38:08.656Z,8.00
2019-02-17T19:40:40.431Z,8.00
2019-02-17T19:43:12.012Z,8.00
2019-02-17T19:45:43.733Z,7.90
2019-02-17T19:48:15.559Z,7.80
2019-02-17T19:50:47.148Z,7.90
2019-02-17T19:53:18.687Z,7.80
2019-02-17T19:55:50.266Z,7.70
2019-02-17T19:58:27.793Z,7.70
2019-02-17T20:00:59.349Z,7.70
2019-02-17T20:03:46.457Z,7.70
2019-02-17T20:06:20.301Z,7.60
2019-02-17T20:08:51.761Z,7.60
2019-02-17T20:11:23.289Z,7.50
2019-02-17T20:13:54.903Z,7.40
2019-02-17T20:16:29.610Z,7.50
2019-02-17T20:19:01.098Z,7.50
2019-02-17T20:21:32.736Z,7.40
2019-02-17T20:24:05.253Z,7.40
2019-02-17T20:26:37.844Z,7.30
2019-02-17T20:29:11.806Z,7.40
2019-02-17T20:31:42.670Z,7.30
2019-02-17T20:34:14.724Z,7.30
2019-02-17T20:36:46.466Z,7.30
2019-02-17T20:39:18.058Z,7.30
2019-02-17T20:41:49.751Z,7.20
2019-02-17T20:44:21.958Z,7.30
2019-02-17T20:46:56.517Z,7.30
2019-02-17T20:49:28.106Z,7.30
2019-02-17T20:51:59.646Z,7.30
2019-02-17T20:54:31.331Z,7.30
2019-02-17T20:57:02.883Z,7.20
2019-02-17T20:59:34.419Z,7.10
2019-02-17T21:02:07.337Z,7.00
2019-02-17T21:04:38.810Z,7.00
2019-02-17T21:07:10.337Z,7.00
2019-02-17T21:09:41.807Z,6.90
2019-02-17T21:12:15.033Z,6.80
2019-02-17T21:14:46.539Z,6.80
2019-02-17T21:17:18.181Z,6.80
2019-02-17T21:19:50.801Z,6.80
2019-02-17T21:22:22.527Z,6.70
2019-02-17T21:25:06.162Z,6.70
2019-02-17T21:27:37.759Z,6.60
2019-02-17T21:30:09.916Z,6.50
2019-02-17T21:32:43.457Z,6.50
2019-02-17T21:35:15.278Z,6.40
2019-02-17T21:37:46.939Z,6.40
2019-02-17T21:40:18.467Z,6.40
2019-02-17T21:42:50.023Z,6.30
2019-02-17T21:45:21.584Z,6.30
2019-02-17T21:47:53.418Z,6.30
2019-02-17T21:50:25.247Z,6.30
2019-02-17T21:52:56.875Z,6.30
2019-02-17T21:55:28.392Z,6.30
2019-02-17T21:58:02.984Z,6.30
2019-02-17T22:00:34.619Z,6.30
2019-02-17T22:03:06.210Z,6.30
2019-02-17T22:05:37.755Z,6.30
2019-02-17T22:08:09.531Z,6.40
2019-02-17T22:10:41.098Z,6.40
2019-02-17T22:13:12.731Z,6.30
2019-02-17T22:15:44.895Z,6.20
2019-02-17T22:18:16.647Z,6.20
2019-02-17T22:20:48.280Z,6.20
2019-02-17T22:23:19.849Z,6.20
2019-02-17T22:25:51.389Z,6.20
2019-02-17T22:28:22.931Z,6.20
2019-02-17T22:30:54.404Z,6.20
2019-02-17T22:33:25.872Z,6.10
2019-02-17T22:35:57.547Z,6.10
2019-02-17T22:38:29.034Z,6.10
2019-02-17T22:41:00.579Z,6.10
2019-02-17T22:43:32.164Z,6.10
2019-02-17T22:46:03.811Z,6.10
2019-02-17T22:48:35.387Z,6.10
2019-02-17T22:51:10.144Z,6.10
2019-02-17T22:53:44.047Z,6.10
2019-02-17T22:56:14.909Z,6.00
2019-02-17T22:58:46.820Z,6.10
2019-02-17T23:01:25.299Z,6.10
2019-02-17T23:03:57.415Z,6.00
2019-02-17T23:06:29.010Z,6.00
2019-02-17T23:09:00.788Z,6.00
2019-02-17T23:11:34.000Z,5.90
2019-02-17T23:14:05.695Z,5.90
2019-02-17T23:16:37.447Z,5.90
2019-02-17T23:19:08.922Z,5.80
2019-02-17T23:21:40.511Z,5.80
2019-02-17T23:24:12.569Z,5.80
2019-02-17T23:26:44.082Z,5.70
2019-02-17T23:29:15.782Z,5.70
2019-02-17T23:31:47.411Z,5.70
2019-02-17T23:34:18.980Z,5.70
2019-02-17T23:36:50.456Z,5.60
2019-02-17T23:39:24.996Z,5.60
2019-02-17T23:41:56.494Z,5.60
2019-02-17T23:44:28.022Z,5.60
2019-02-17T23:46:59.534Z,5.60
2019-02-17T23:49:31.057Z,5.60
2019-02-17T23:52:02.619Z,5.60
2019-02-17T23:54:34.099Z,5.50
2019-02-17T23:57:05.635Z,5.50
2019-02-17T23:59:37.184Z,5.50
